createdAt,value
2019-01-17T00:02:25.979Z,3.10
2019-01-17T00:05:19.157Z,3.30
2019-01-17T00:08:05.202Z,3.90
2019-01-17T00:11:02.855Z,4.50
2019-01-17T00:13:59.545Z,6.00
2019-01-17T00:16:46.337Z,5.30
2019-01-17T00:19:40.685Z,5.40
2019-01-17T00:22:31.303Z,5.50
2019-01-17T00:25:21.902Z,5.70
2019-01-17T00:28:24.367Z,5.80
2019-01-17T00:30:59.849Z,5.90
2019-01-17T00:33:59.082Z,6.10
2019-01-17T00:37:04.495Z,6.10
2019-01-17T00:39:48.089Z,6.20
2019-01-17T00:42:29.083Z,6.10
2019-01-17T00:45:17.409Z,6.20
2019-01-17T00:48:03.751Z,6.30
2019-01-17T00:50:49.727Z,6.40
2019-01-17T00:53:37.108Z,6.40
2019-01-17T00:56:36.492Z,6.40
2019-01-17T00:59:41.992Z,6.40
2019-01-17T01:02:23.011Z,6.50
2019-01-17T01:05:03.226Z,6.80
2019-01-17T01:07:54.435Z,6.40
2019-01-17T01:11:00.356Z,6.50
2019-01-17T01:13:46.552Z,6.50
2019-01-17T01:16:49.288Z,6.60
2019-01-17T01:19:30.816Z,6.50
2019-01-17T01:22:10.966Z,6.50
2019-01-17T01:24:58.337Z,6.50
2019-01-17T01:27:51.335Z,6.60
2019-01-17T01:30:41.721Z,6.50
2019-01-17T01:33:29.088Z,6.60
2019-01-17T01:36:22.613Z,6.60
2019-01-17T01:39:10.054Z,6.60
2019-01-17T01:41:56.396Z,6.50
2019-01-17T01:44:46.303Z,6.50
2019-01-17T01:47:30.848Z,6.50
2019-01-17T01:50:24.358Z,6.50
2019-01-17T01:53:07.054Z,6.50
2019-01-17T01:55:34.981Z,6.60
2019-01-17T01:58:27.436Z,6.50
2019-01-17T02:00:55.219Z,6.60
2019-01-17T02:03:23.031Z,6.70
2019-01-17T02:05:50.826Z,6.60
2019-01-17T02:08:18.766Z,6.60
2019-01-17T02:10:46.558Z,6.70
2019-01-17T02:13:14.382Z,6.60
2019-01-17T02:15:42.204Z,6.60
2019-01-17T02:18:10.084Z,6.60
2019-01-17T02:20:37.848Z,6.60
2019-01-17T02:23:05.613Z,6.70
2019-01-17T02:25:33.429Z,6.60
2019-01-17T02:28:01.192Z,6.50
2019-01-17T02:30:28.962Z,6.50
2019-01-17T02:32:56.758Z,6.60
2019-01-17T02:35:24.575Z,6.50
2019-01-17T02:37:52.382Z,6.60
2019-01-17T02:40:20.167Z,6.60
2019-01-17T02:42:47.994Z,6.50
2019-01-17T02:45:15.805Z,6.50
2019-01-17T02:47:43.569Z,6.50
2019-01-17T02:50:11.575Z,6.40
2019-01-17T02:52:39.364Z,6.40
2019-01-17T02:55:07.995Z,6.40
2019-01-17T02:57:35.993Z,6.40
2019-01-17T03:00:08.436Z,6.40
2019-01-17T03:02:36.194Z,6.60
2019-01-17T03:05:04.779Z,6.40
2019-01-17T03:07:32.712Z,6.40
2019-01-17T03:10:00.508Z,6.40
2019-01-17T03:12:28.291Z,6.50
2019-01-17T03:14:57.881Z,6.50
2019-01-17T03:17:45.411Z,6.60
2019-01-17T03:20:13.892Z,6.60
2019-01-17T03:22:41.741Z,6.60
2019-01-17T03:25:09.875Z,6.60
2019-01-17T03:28:08.425Z,6.60
2019-01-17T03:30:36.388Z,6.60
2019-01-17T03:33:04.214Z,6.60
2019-01-17T03:35:32.004Z,6.60
2019-01-17T03:37:59.824Z,6.60
2019-01-17T03:40:27.645Z,6.70
2019-01-17T03:42:55.463Z,6.70
2019-01-17T03:45:23.282Z,6.70
2019-01-17T03:47:51.118Z,6.60
2019-01-17T03:50:18.993Z,6.70
2019-01-17T03:52:46.791Z,6.70
2019-01-17T03:55:18.358Z,6.70
2019-01-17T03:57:46.189Z,6.70
2019-01-17T04:00:18.912Z,6.80
2019-01-17T04:02:46.750Z,6.70
2019-01-17T04:05:14.554Z,6.70
2019-01-17T04:07:42.368Z,6.70
2019-01-17T04:10:13.081Z,6.70
2019-01-17T04:12:41.166Z,6.70
2019-01-17T04:15:09.847Z,6.70
2019-01-17T04:17:37.655Z,6.60
2019-01-17T04:20:09.055Z,6.70
2019-01-17T04:22:36.839Z,6.60
2019-01-17T04:25:06.053Z,6.70
2019-01-17T04:27:33.832Z,6.70
2019-01-17T04:30:01.674Z,6.60
2019-01-17T04:32:29.498Z,6.60
2019-01-17T04:34:57.311Z,6.60
2019-01-17T04:37:25.125Z,6.60
2019-01-17T04:39:52.879Z,6.50
2019-01-17T04:42:20.650Z,6.60
2019-01-17T04:44:48.440Z,6.50
2019-01-17T04:47:16.224Z,6.60
2019-01-17T04:49:44.046Z,6.90
2019-01-17T04:52:11.790Z,6.60
2019-01-17T04:54:39.591Z,6.70
2019-01-17T04:57:12.503Z,6.70
2019-01-17T04:59:40.703Z,6.60
2019-01-17T05:02:10.929Z,6.60
2019-01-17T05:04:38.675Z,6.60
2019-01-17T05:07:06.463Z,6.50
2019-01-17T05:09:34.261Z,6.50
2019-01-17T05:12:02.084Z,6.60
2019-01-17T05:14:29.923Z,6.50
2019-01-17T05:16:57.958Z,6.50
2019-01-17T05:19:25.742Z,6.40
2019-01-17T05:21:53.479Z,6.40
2019-01-17T05:24:23.279Z,6.40
2019-01-17T05:26:51.362Z,6.40
2019-01-17T05:29:19.127Z,6.40
2019-01-17T05:31:46.853Z,6.40
2019-01-17T05:34:15.458Z,6.30
2019-01-17T05:37:13.948Z,6.30
2019-01-17T05:40:01.196Z,6.30
2019-01-17T05:42:29.002Z,6.80
2019-01-17T05:44:56.810Z,6.20
2019-01-17T05:47:24.557Z,6.20
2019-01-17T05:49:52.390Z,6.30
2019-01-17T05:52:20.174Z,6.20
2019-01-17T05:54:47.909Z,6.20
2019-01-17T05:57:15.690Z,6.20
2019-01-17T05:59:43.482Z,6.10
2019-01-17T06:02:11.246Z,6.10
2019-01-17T06:04:39.072Z,6.10
2019-01-17T06:07:07.013Z,6.10
2019-01-17T06:09:34.802Z,6.10
2019-01-17T06:12:02.554Z,6.10
2019-01-17T06:14:30.395Z,6.20
2019-01-17T06:16:58.152Z,6.10
2019-01-17T06:19:25.970Z,6.10
2019-01-17T06:21:53.737Z,6.10
2019-01-17T06:24:21.572Z,6.10
2019-01-17T06:27:02.471Z,6.20
2019-01-17T06:29:30.309Z,6.10
2019-01-17T06:31:58.186Z,6.10
2019-01-17T06:34:26.000Z,6.10
2019-01-17T06:36:53.805Z,6.10
2019-01-17T06:39:21.664Z,6.10
2019-01-17T06:41:49.402Z,6.10
2019-01-17T06:44:20.495Z,6.10
2019-01-17T06:46:46.919Z,6.10
2019-01-17T06:49:14.723Z,6.10
2019-01-17T06:51:42.515Z,6.10
2019-01-17T06:54:10.284Z,6.00
2019-01-17T06:56:38.050Z,6.00
2019-01-17T06:59:05.944Z,6.10
2019-01-17T07:01:33.712Z,6.10
2019-01-17T07:04:01.625Z,6.00
2019-01-17T07:06:29.451Z,6.10
2019-01-17T07:08:57.282Z,6.00
2019-01-17T07:11:25.113Z,6.10
2019-01-17T07:13:55.148Z,6.00
2019-01-17T07:16:22.963Z,6.00
2019-01-17T07:18:51.002Z,6.00
2019-01-17T07:21:18.780Z,6.00
2019-01-17T07:23:46.606Z,6.00
2019-01-17T07:26:14.463Z,6.00
2019-01-17T07:28:47.571Z,6.00
2019-01-17T07:31:15.499Z,6.00
2019-01-17T07:33:43.377Z,6.00
2019-01-17T07:36:11.195Z,5.90
2019-01-17T07:38:39.636Z,6.00
2019-01-17T07:41:07.472Z,6.00
2019-01-17T07:43:35.278Z,6.20
2019-01-17T07:46:03.098Z,6.00
2019-01-17T07:48:31.007Z,6.30
2019-01-17T07:50:58.875Z,6.00
2019-01-17T07:53:34.924Z,6.00
2019-01-17T07:56:04.333Z,6.00
2019-01-17T07:58:51.606Z,6.00
2019-01-17T08:01:19.457Z,6.00
2019-01-17T08:03:50.972Z,6.00
2019-01-17T08:06:18.835Z,6.00
2019-01-17T08:08:49.359Z,6.30
2019-01-17T08:11:17.193Z,6.30
2019-01-17T08:13:44.987Z,6.00
2019-01-17T08:16:12.924Z,6.00
2019-01-17T08:18:40.724Z,6.00
2019-01-17T08:21:08.502Z,6.10
2019-01-17T08:23:36.271Z,6.10
2019-01-17T08:26:04.153Z,6.10
2019-01-17T08:28:31.956Z,6.20
2019-01-17T08:30:59.748Z,6.10
2019-01-17T08:33:27.575Z,6.20
2019-01-17T08:35:55.336Z,6.20
2019-01-17T08:38:38.142Z,6.20
2019-01-17T08:41:05.975Z,6.20
2019-01-17T08:43:33.766Z,6.20
2019-01-17T08:46:21.077Z,6.30
2019-01-17T08:48:48.894Z,6.90
2019-01-17T08:51:17.993Z,6.30
2019-01-17T08:53:45.833Z,6.30
2019-01-17T08:56:13.649Z,6.30
2019-01-17T08:59:01.138Z,6.30
2019-01-17T09:01:28.939Z,6.30
2019-01-17T09:03:56.677Z,6.30
2019-01-17T09:06:24.518Z,6.60
2019-01-17T09:08:52.802Z,6.40
2019-01-17T09:11:20.611Z,6.40
2019-01-17T09:13:48.400Z,6.40
2019-01-17T09:16:16.182Z,6.90
2019-01-17T09:18:44.014Z,6.50
2019-01-17T09:21:11.805Z,6.50
2019-01-17T09:23:39.608Z,6.50
2019-01-17T09:26:07.840Z,6.60
2019-01-17T09:28:35.859Z,6.60
2019-01-17T09:31:03.858Z,6.60
2019-01-17T09:33:31.624Z,5.90
2019-01-17T09:35:59.470Z,6.60
2019-01-17T09:38:27.243Z,6.60
2019-01-17T09:40:55.013Z,6.60
2019-01-17T09:43:22.811Z,6.60
2019-01-17T09:45:50.597Z,6.60
2019-01-17T09:48:18.365Z,6.70
2019-01-17T09:50:46.126Z,6.80
2019-01-17T09:53:13.929Z,6.90
2019-01-17T09:55:41.662Z,7.00
2019-01-17T09:58:09.555Z,7.00
2019-01-17T10:00:37.393Z,7.00
2019-01-17T10:03:05.181Z,6.90
2019-01-17T10:05:32.995Z,6.90
2019-01-17T10:08:00.920Z,7.30
2019-01-17T10:10:28.694Z,6.80
2019-01-17T10:12:56.485Z,6.80
2019-01-17T10:16:10.466Z,6.80
2019-01-17T10:19:36.517Z,6.70
2019-01-17T10:22:43.840Z,6.80
2019-01-17T10:25:56.287Z,6.80
2019-01-17T10:29:08.200Z,6.90
2019-01-17T10:32:40.792Z,6.90
2019-01-17T10:35:48.482Z,7.00
2019-01-17T10:38:59.653Z,7.10
2019-01-17T10:42:38.025Z,7.10
2019-01-17T10:45:47.300Z,7.70
2019-01-17T10:49:21.562Z,7.20
2019-01-17T10:53:04.736Z,7.10
2019-01-17T10:56:41.267Z,7.10
2019-01-17T10:59:42.611Z,7.20
2019-01-17T11:02:49.424Z,7.20
2019-01-17T11:05:53.007Z,7.10
2019-01-17T11:09:19.724Z,7.20
2019-01-17T11:12:48.191Z,7.30
2019-01-17T11:16:05.921Z,7.30
2019-01-17T11:19:38.283Z,7.30
2019-01-17T11:23:15.435Z,8.00
2019-01-17T11:26:34.472Z,7.50
2019-01-17T11:29:35.643Z,7.60
2019-01-17T11:32:33.366Z,7.60
2019-01-17T11:35:59.658Z,7.80
2019-01-17T11:39:16.963Z,8.20
2019-01-17T11:42:30.605Z,8.20
2019-01-17T11:45:43.444Z,8.10
2019-01-17T11:49:03.806Z,7.70
2019-01-17T11:52:17.886Z,7.40
2019-01-17T11:55:41.422Z,7.40
2019-01-17T11:59:23.516Z,7.40
2019-01-17T12:02:59.595Z,7.80
2019-01-17T12:05:27.378Z,9.10
2019-01-17T12:07:55.244Z,10.20
2019-01-17T12:10:23.381Z,9.70
2019-01-17T12:12:51.553Z,9.50
2019-01-17T12:15:19.344Z,9.00
2019-01-17T12:17:47.144Z,8.40
2019-01-17T12:20:15.026Z,8.50
2019-01-17T12:22:42.834Z,8.70
2019-01-17T12:25:10.736Z,8.70
2019-01-17T12:27:42.551Z,9.10
2019-01-17T12:30:12.821Z,9.90
2019-01-17T12:32:40.627Z,10.60
2019-01-17T12:35:12.522Z,10.50
2019-01-17T12:37:40.317Z,9.90
2019-01-17T12:40:12.046Z,9.20
2019-01-17T12:42:39.887Z,9.30
2019-01-17T12:45:09.754Z,10.10
2019-01-17T12:47:37.707Z,10.40
2019-01-17T12:50:13.751Z,9.90
2019-01-17T12:52:41.577Z,9.60
2019-01-17T12:55:09.511Z,8.90
2019-01-17T12:57:37.278Z,8.60
2019-01-17T13:00:09.629Z,8.20
2019-01-17T13:02:37.411Z,7.90
2019-01-17T13:05:05.624Z,7.90
2019-01-17T13:08:03.850Z,7.80
2019-01-17T13:10:31.630Z,8.10
2019-01-17T13:12:59.452Z,8.30
2019-01-17T13:15:27.242Z,8.80
2019-01-17T13:18:26.213Z,9.30
2019-01-17T13:20:54.027Z,9.60
2019-01-17T13:23:21.801Z,9.60
2019-01-17T13:25:49.565Z,9.50
2019-01-17T13:28:17.467Z,9.10
2019-01-17T13:30:45.244Z,8.90
2019-01-17T13:33:13.003Z,8.60
2019-01-17T13:35:40.806Z,8.30
2019-01-17T13:38:08.590Z,8.50
2019-01-17T13:40:36.360Z,8.70
2019-01-17T13:43:04.077Z,8.80
2019-01-17T13:45:31.902Z,9.50
2019-01-17T13:47:59.738Z,9.80
2019-01-17T13:50:27.466Z,9.20
2019-01-17T13:52:55.300Z,8.90
2019-01-17T13:55:23.110Z,8.70
2019-01-17T13:58:10.374Z,8.80
2019-01-17T14:00:38.176Z,9.60
2019-01-17T14:03:05.979Z,8.30
2019-01-17T14:05:33.731Z,8.20
2019-01-17T14:08:01.674Z,7.80
2019-01-17T14:10:29.484Z,7.60
2019-01-17T14:12:57.298Z,7.00
2019-01-17T14:15:27.665Z,6.60
2019-01-17T14:17:55.460Z,6.40
2019-01-17T14:20:23.277Z,6.20
2019-01-17T14:22:51.082Z,6.00
2019-01-17T14:25:18.946Z,5.90
2019-01-17T14:27:46.782Z,5.80
2019-01-17T14:30:21.501Z,5.80
2019-01-17T14:32:49.347Z,5.70
2019-01-17T14:35:17.177Z,5.70
2019-01-17T14:37:50.303Z,5.70
2019-01-17T14:40:18.111Z,5.60
2019-01-17T14:42:45.948Z,5.60
2019-01-17T14:45:16.012Z,6.10
2019-01-17T14:48:14.519Z,5.60
2019-01-17T14:50:42.472Z,5.70
2019-01-17T14:53:10.296Z,6.00
2019-01-17T14:55:38.564Z,6.10
2019-01-17T14:58:46.290Z,6.10
2019-01-17T15:01:14.328Z,6.00
2019-01-17T15:03:42.159Z,5.90
2019-01-17T15:06:09.937Z,5.90
2019-01-17T15:08:57.218Z,5.80
2019-01-17T15:11:25.342Z,5.70
2019-01-17T15:13:53.160Z,5.60
2019-01-17T15:16:20.958Z,5.50
2019-01-17T15:18:48.734Z,5.50
2019-01-17T15:21:16.586Z,5.50
2019-01-17T15:23:44.390Z,5.50
2019-01-17T15:26:12.209Z,5.40
2019-01-17T15:28:39.993Z,5.40
2019-01-17T15:31:07.807Z,5.40
2019-01-17T15:33:35.621Z,5.30
2019-01-17T15:36:04.647Z,5.60
2019-01-17T15:38:32.507Z,5.40
2019-01-17T15:41:00.332Z,5.40
2019-01-17T15:43:28.152Z,5.30
2019-01-17T15:45:55.930Z,5.30
2019-01-17T15:48:28.768Z,5.30
2019-01-17T15:50:56.604Z,5.40
2019-01-17T15:53:25.735Z,5.30
2019-01-17T15:55:55.845Z,5.30
2019-01-17T15:58:24.725Z,5.40
2019-01-17T16:00:52.522Z,5.40
2019-01-17T16:03:20.317Z,5.40
2019-01-17T16:05:51.167Z,5.40
2019-01-17T16:08:18.992Z,5.40
2019-01-17T16:10:47.264Z,5.40
2019-01-17T16:13:15.126Z,5.50
2019-01-17T16:15:42.944Z,5.50
2019-01-17T16:18:15.902Z,5.60
2019-01-17T16:20:43.739Z,5.10
2019-01-17T16:23:11.932Z,4.00
2019-01-17T16:25:39.707Z,3.60
2019-01-17T16:28:07.666Z,3.50
2019-01-17T16:30:53.568Z,3.20
2019-01-17T16:33:21.448Z,3.20
2019-01-17T16:35:49.234Z,3.20
2019-01-17T16:38:20.011Z,3.20
2019-01-17T16:40:47.773Z,3.00
2019-01-17T16:43:15.642Z,3.20
2019-01-17T16:45:43.399Z,3.00
2019-01-17T16:48:11.286Z,3.10
2019-01-17T16:50:39.039Z,3.10
2019-01-17T16:53:06.911Z,3.30
2019-01-17T16:55:34.756Z,3.10
2019-01-17T16:58:02.994Z,3.10
2019-01-17T17:00:42.966Z,3.10
2019-01-17T17:03:10.779Z,3.10
2019-01-17T17:05:38.557Z,3.10
2019-01-17T17:08:06.701Z,3.10
2019-01-17T17:10:34.493Z,3.00
2019-01-17T17:13:02.280Z,3.20
2019-01-17T17:15:30.060Z,3.50
2019-01-17T17:17:58.033Z,3.60
2019-01-17T17:20:26.337Z,3.10
2019-01-17T17:22:54.143Z,3.10
2019-01-17T17:25:21.902Z,3.60
2019-01-17T17:27:55.294Z,3.40
2019-01-17T17:30:22.487Z,3.30
2019-01-17T17:32:50.260Z,3.30
2019-01-17T17:35:18.025Z,3.30
2019-01-17T17:37:45.861Z,3.40
2019-01-17T17:40:31.900Z,3.40
2019-01-17T17:42:59.674Z,3.40
2019-01-17T17:45:28.865Z,3.50
2019-01-17T17:47:59.465Z,3.40
2019-01-17T17:50:27.334Z,3.50
2019-01-17T17:52:55.051Z,3.40
2019-01-17T17:55:23.310Z,3.70
2019-01-17T17:58:05.096Z,3.50
2019-01-17T18:00:42.418Z,3.50
2019-01-17T18:03:10.295Z,3.50
2019-01-17T18:05:38.153Z,3.60
2019-01-17T18:08:11.141Z,3.60
2019-01-17T18:10:38.935Z,3.60
2019-01-17T18:13:06.793Z,4.00
2019-01-17T18:15:34.603Z,3.60
2019-01-17T18:18:22.131Z,3.60
2019-01-17T18:20:50.139Z,3.70
2019-01-17T18:23:17.961Z,4.00
2019-01-17T18:25:45.775Z,3.70
2019-01-17T18:28:13.562Z,4.10
2019-01-17T18:30:41.666Z,3.70
2019-01-17T18:33:09.647Z,3.70
2019-01-17T18:35:37.401Z,3.60
2019-01-17T18:38:05.238Z,3.60
2019-01-17T18:40:33.017Z,3.60
2019-01-17T18:43:00.900Z,3.60
2019-01-17T18:45:28.706Z,3.60
2019-01-17T18:48:06.659Z,3.60
2019-01-17T18:50:35.608Z,3.60
2019-01-17T18:53:03.720Z,3.70
2019-01-17T18:55:31.557Z,3.60
2019-01-17T18:57:59.442Z,3.60
2019-01-17T19:00:29.609Z,3.70
2019-01-17T19:02:57.627Z,3.60
2019-01-17T19:05:25.493Z,3.70
2019-01-17T19:08:01.282Z,3.60
2019-01-17T19:10:29.648Z,3.60
2019-01-17T19:12:57.630Z,3.60
2019-01-17T19:15:28.692Z,3.60
2019-01-17T19:17:57.301Z,3.90
2019-01-17T19:20:25.564Z,3.50
2019-01-17T19:22:53.597Z,3.50
2019-01-17T19:25:21.540Z,3.50
2019-01-17T19:27:50.190Z,3.40
2019-01-17T19:30:30.272Z,3.40
2019-01-17T19:33:00.512Z,3.40
2019-01-17T19:35:29.501Z,3.20
2019-01-17T19:37:58.080Z,3.30
2019-01-17T19:40:28.656Z,3.10
2019-01-17T19:42:56.667Z,3.00
2019-01-17T19:45:24.485Z,3.00
2019-01-17T19:47:56.544Z,2.90
2019-01-17T19:50:37.580Z,2.90
2019-01-17T19:53:12.277Z,2.80
2019-01-17T19:55:47.542Z,3.60
2019-01-17T19:58:21.847Z,2.80
2019-01-17T20:00:53.993Z,2.80
2019-01-17T20:03:33.124Z,2.80
2019-01-17T20:06:01.112Z,2.80
2019-01-17T20:08:35.681Z,2.80
2019-01-17T20:11:09.778Z,2.80
2019-01-17T20:13:37.712Z,2.80
2019-01-17T20:16:08.589Z,2.90
2019-01-17T20:18:36.956Z,2.10
2019-01-17T20:21:06.393Z,2.80
2019-01-17T20:23:37.580Z,2.80
2019-01-17T20:26:05.536Z,3.50
2019-01-17T20:28:40.679Z,3.20
2019-01-17T20:31:08.628Z,2.70
2019-01-17T20:33:36.570Z,2.80
2019-01-17T20:36:06.249Z,2.70
2019-01-17T20:38:34.678Z,3.10
2019-01-17T20:41:02.517Z,2.70
2019-01-17T20:43:30.498Z,2.70
2019-01-17T20:45:58.353Z,2.80
2019-01-17T20:48:26.351Z,2.80
2019-01-17T20:50:58.960Z,2.80
2019-01-17T20:53:29.945Z,2.80
2019-01-17T20:56:01.208Z,3.90
2019-01-17T20:58:31.128Z,2.70
2019-01-17T21:01:36.175Z,2.70
2019-01-17T21:04:06.411Z,2.70
2019-01-17T21:06:34.231Z,2.80
2019-01-17T21:09:21.578Z,2.70
2019-01-17T21:11:49.850Z,3.60
2019-01-17T21:14:17.728Z,2.70
2019-01-17T21:16:45.669Z,2.60
2019-01-17T21:19:13.534Z,2.50
2019-01-17T21:21:41.347Z,2.90
2019-01-17T21:24:09.153Z,2.70
2019-01-17T21:26:36.944Z,2.40
2019-01-17T21:29:04.761Z,2.40
2019-01-17T21:31:32.620Z,2.30
2019-01-17T21:34:00.500Z,2.40
2019-01-17T21:36:28.335Z,2.30
2019-01-17T21:38:56.562Z,2.30
2019-01-17T21:41:24.378Z,2.30
2019-01-17T21:43:52.231Z,2.20
2019-01-17T21:46:20.010Z,2.10
2019-01-17T21:48:53.076Z,2.70
2019-01-17T21:51:20.891Z,2.10
2019-01-17T21:53:48.752Z,2.10
2019-01-17T21:56:18.218Z,2.10
2019-01-17T21:58:56.243Z,2.00
2019-01-17T22:01:23.991Z,2.00
2019-01-17T22:03:51.897Z,1.90
2019-01-17T22:06:19.740Z,1.90
2019-01-17T22:08:47.764Z,2.00
2019-01-17T22:11:16.739Z,1.90
2019-01-17T22:13:44.755Z,1.90
2019-01-17T22:16:12.567Z,1.80
2019-01-17T22:18:45.753Z,1.90
2019-01-17T22:21:13.667Z,1.90
2019-01-17T22:23:41.507Z,2.40
2019-01-17T22:26:09.332Z,2.50
2019-01-17T22:29:38.081Z,1.90
2019-01-17T22:32:05.879Z,1.90
2019-01-17T22:34:34.538Z,2.00
2019-01-17T22:37:02.623Z,2.30
2019-01-17T22:39:30.478Z,2.00
2019-01-17T22:41:58.323Z,2.00
2019-01-17T22:44:26.315Z,2.10
2019-01-17T22:46:54.291Z,2.10
2019-01-17T22:49:22.084Z,2.20
2019-01-17T22:51:49.914Z,2.10
2019-01-17T22:54:17.747Z,2.20
2019-01-17T22:56:45.628Z,2.30
2019-01-17T22:59:13.488Z,2.20
2019-01-17T23:01:42.313Z,2.30
2019-01-17T23:04:10.168Z,2.30
2019-01-17T23:06:38.002Z,2.40
2019-01-17T23:09:07.843Z,2.50
2019-01-17T23:11:35.693Z,2.60
2019-01-17T23:14:03.762Z,2.50
2019-01-17T23:16:31.622Z,2.40
2019-01-17T23:18:59.460Z,2.40
2019-01-17T23:21:27.557Z,2.40
2019-01-17T23:23:55.339Z,2.50
2019-01-17T23:26:23.169Z,2.40
2019-01-17T23:28:50.960Z,2.40
2019-01-17T23:31:18.716Z,2.40
2019-01-17T23:33:47.130Z,2.70
2019-01-17T23:36:14.930Z,2.40
2019-01-17T23:38:43.174Z,2.90
2019-01-17T23:41:10.929Z,2.40
2019-01-17T23:43:38.798Z,2.50
2019-01-17T23:46:06.548Z,2.50
2019-01-17T23:48:34.496Z,3.00
2019-01-17T23:51:02.280Z,2.50
2019-01-17T23:53:30.129Z,2.70
2019-01-17T23:55:57.941Z,2.40
2019-01-17T23:58:25.896Z,2.70
